sensor_id;sensor_type;location;lat;lon;timestamp;P1;durP1;ratioP1;P2;durP2;ratioP2
47429;SDS011;33181;49.246;7.372;2023-02-10T00:01:14;75.37;;;34.97;;
47429;SDS011;33181;49.246;7.372;2023-02-10T00:03:45;68.13;;;33.20;;
47429;SDS011;33181;49.246;7.372;2023-02-10T00:06:12;66.83;;;34.40;;
47429;SDS011;33181;49.246;7.372;2023-02-10T00:08:40;65.73;;;34.30;;
47429;SDS011;33181;49.246;7.372;2023-02-10T00:11:08;65.63;;;33.60;;
47429;SDS011;33181;49.246;7.372;2023-02-10T00:13:36;67.83;;;34.80;;
47429;SDS011;33181;49.246;7.372;2023-02-10T00:16:06;59.47;;;31.43;;
47429;SDS011;33181;49.246;7.372;2023-02-10T00:18:35;62.63;;;30.70;;
47429;SDS011;33181;49.246;7.372;2023-02-10T00:21:05;66.53;;;33.23;;
47429;SDS011;33181;49.246;7.372;2023-02-10T00:23:40;62.67;;;32.10;;
47429;SDS011;33181;49.246;7.372;2023-02-10T00:26:07;64.80;;;32.33;;
47429;SDS011;33181;49.246;7.372;2023-02-10T00:28:36;56.93;;;31.10;;
47429;SDS011;33181;49.246;7.372;2023-02-10T00:31:06;57.63;;;30.17;;
47429;SDS011;33181;49.246;7.372;2023-02-10T00:33:43;59.70;;;29.77;;
47429;SDS011;33181;49.246;7.372;2023-02-10T00:36:10;63.67;;;31.60;;
47429;SDS011;33181;49.246;7.372;2023-02-10T00:38:38;71.37;;;32.63;;
47429;SDS011;33181;49.246;7.372;2023-02-10T00:41:06;62.00;;;31.57;;
47429;SDS011;33181;49.246;7.372;2023-02-10T00:43:37;63.30;;;31.73;;
47429;SDS011;33181;49.246;7.372;2023-02-10T00:46:05;65.60;;;34.17;;
47429;SDS011;33181;49.246;7.372;2023-02-10T00:48:31;56.97;;;31.00;;
47429;SDS011;33181;49.246;7.372;2023-02-10T00:50:57;63.47;;;31.23;;
47429;SDS011;33181;49.246;7.372;2023-02-10T00:53:23;63.70;;;31.87;;
47429;SDS011;33181;49.246;7.372;2023-02-10T00:55:49;68.63;;;33.00;;
47429;SDS011;33181;49.246;7.372;2023-02-10T00:58:14;62.40;;;30.93;;
47429;SDS011;33181;49.246;7.372;2023-02-10T01:00:40;72.37;;;33.20;;
47429;SDS011;33181;49.246;7.372;2023-02-10T01:03:06;64.97;;;33.37;;
47429;SDS011;33181;49.246;7.372;2023-02-10T01:05:32;62.80;;;32.13;;
47429;SDS011;33181;49.246;7.372;2023-02-10T01:07:58;62.47;;;31.40;;
47429;SDS011;33181;49.246;7.372;2023-02-10T01:10:24;60.47;;;31.43;;
47429;SDS011;33181;49.246;7.372;2023-02-10T01:12:49;64.97;;;32.47;;
47429;SDS011;33181;49.246;7.372;2023-02-10T01:15:15;74.37;;;34.87;;
47429;SDS011;33181;49.246;7.372;2023-02-10T01:17:41;64.40;;;31.77;;
47429;SDS011;33181;49.246;7.372;2023-02-10T01:20:07;63.53;;;32.00;;
47429;SDS011;33181;49.246;7.372;2023-02-10T01:22:33;68.47;;;33.33;;
47429;SDS011;33181;49.246;7.372;2023-02-10T01:25:00;63.40;;;31.20;;
47429;SDS011;33181;49.246;7.372;2023-02-10T01:27:26;59.97;;;30.17;;
47429;SDS011;33181;49.246;7.372;2023-02-10T01:29:52;65.40;;;28.87;;
47429;SDS011;33181;49.246;7.372;2023-02-10T01:32:18;60.00;;;30.97;;
47429;SDS011;33181;49.246;7.372;2023-02-10T01:34:43;58.70;;;30.53;;
47429;SDS011;33181;49.246;7.372;2023-02-10T01:37:09;62.00;;;30.63;;
47429;SDS011;33181;49.246;7.372;2023-02-10T01:39:35;53.03;;;28.67;;
47429;SDS011;33181;49.246;7.372;2023-02-10T01:42:01;62.30;;;29.50;;
47429;SDS011;33181;49.246;7.372;2023-02-10T01:46:53;60.80;;;30.57;;
47429;SDS011;33181;49.246;7.372;2023-02-10T01:49:25;60.50;;;30.63;;
47429;SDS011;33181;49.246;7.372;2023-02-10T01:52:29;65.23;;;31.50;;
47429;SDS011;33181;49.246;7.372;2023-02-10T01:55:13;61.83;;;29.33;;
47429;SDS011;33181;49.246;7.372;2023-02-10T01:57:42;54.37;;;29.87;;
47429;SDS011;33181;49.246;7.372;2023-02-10T02:00:10;67.53;;;30.10;;
47429;SDS011;33181;49.246;7.372;2023-02-10T02:02:39;63.03;;;30.50;;
47429;SDS011;33181;49.246;7.372;2023-02-10T02:05:21;68.07;;;29.80;;
47429;SDS011;33181;49.246;7.372;2023-02-10T02:07:58;58.47;;;29.43;;
47429;SDS011;33181;49.246;7.372;2023-02-10T02:39:48;63.97;;;31.17;;
47429;SDS011;33181;49.246;7.372;2023-02-10T02:42:24;64.33;;;31.97;;
47429;SDS011;33181;49.246;7.372;2023-02-10T02:44:53;62.87;;;30.63;;
47429;SDS011;33181;49.246;7.372;2023-02-10T02:51:05;63.00;;;30.30;;
47429;SDS011;33181;49.246;7.372;2023-02-10T02:56:31;61.33;;;29.33;;
47429;SDS011;33181;49.246;7.372;2023-02-10T02:59:41;63.30;;;30.10;;
47429;SDS011;33181;49.246;7.372;2023-02-10T03:02:17;56.53;;;29.00;;
47429;SDS011;33181;49.246;7.372;2023-02-10T03:04:45;61.97;;;28.80;;
47429;SDS011;33181;49.246;7.372;2023-02-10T03:07:13;58.43;;;28.47;;
47429;SDS011;33181;49.246;7.372;2023-02-10T03:09:39;61.10;;;29.80;;
47429;SDS011;33181;49.246;7.372;2023-02-10T03:12:06;60.03;;;27.70;;
47429;SDS011;33181;49.246;7.372;2023-02-10T03:14:32;57.47;;;27.50;;
47429;SDS011;33181;49.246;7.372;2023-02-10T03:16:58;52.27;;;26.63;;
47429;SDS011;33181;49.246;7.372;2023-02-10T03:19:24;54.37;;;26.90;;
47429;SDS011;33181;49.246;7.372;2023-02-10T03:21:49;50.77;;;26.13;;
47429;SDS011;33181;49.246;7.372;2023-02-10T03:24:15;64.83;;;29.57;;
47429;SDS011;33181;49.246;7.372;2023-02-10T03:26:42;64.37;;;31.03;;
47429;SDS011;33181;49.246;7.372;2023-02-10T03:29:09;62.67;;;29.37;;
47429;SDS011;33181;49.246;7.372;2023-02-10T03:31:37;64.73;;;29.70;;
47429;SDS011;33181;49.246;7.372;2023-02-10T03:34:03;66.17;;;31.23;;
47429;SDS011;33181;49.246;7.372;2023-02-10T03:36:29;57.33;;;29.00;;
47429;SDS011;33181;49.246;7.372;2023-02-10T03:38:55;60.63;;;28.20;;
47429;SDS011;33181;49.246;7.372;2023-02-10T03:41:21;60.17;;;30.23;;
47429;SDS011;33181;49.246;7.372;2023-02-10T03:43:47;57.70;;;28.47;;
47429;SDS011;33181;49.246;7.372;2023-02-10T03:46:12;58.40;;;28.00;;
47429;SDS011;33181;49.246;7.372;2023-02-10T03:48:38;54.13;;;28.53;;
47429;SDS011;33181;49.246;7.372;2023-02-10T03:51:05;52.27;;;26.80;;
47429;SDS011;33181;49.246;7.372;2023-02-10T03:53:32;52.83;;;26.20;;
47429;SDS011;33181;49.246;7.372;2023-02-10T03:55:58;62.53;;;29.27;;
47429;SDS011;33181;49.246;7.372;2023-02-10T03:58:24;55.83;;;27.47;;
47429;SDS011;33181;49.246;7.372;2023-02-10T04:00:50;59.10;;;28.63;;
47429;SDS011;33181;49.246;7.372;2023-02-10T04:03:16;52.60;;;25.80;;
47429;SDS011;33181;49.246;7.372;2023-02-10T04:05:42;58.87;;;29.10;;
47429;SDS011;33181;49.246;7.372;2023-02-10T04:08:08;64.23;;;28.47;;
47429;SDS011;33181;49.246;7.372;2023-02-10T04:10:34;55.17;;;27.10;;
47429;SDS011;33181;49.246;7.372;2023-02-10T04:13:00;52.57;;;26.20;;
47429;SDS011;33181;49.246;7.372;2023-02-10T04:15:26;56.03;;;26.30;;
47429;SDS011;33181;49.246;7.372;2023-02-10T04:17:52;54.40;;;27.70;;
47429;SDS011;33181;49.246;7.372;2023-02-10T04:20:17;51.90;;;26.17;;
47429;SDS011;33181;49.246;7.372;2023-02-10T04:22:43;50.07;;;25.47;;
47429;SDS011;33181;49.246;7.372;2023-02-10T04:25:09;49.37;;;24.30;;
47429;SDS011;33181;49.246;7.372;2023-02-10T04:27:36;48.50;;;24.53;;
47429;SDS011;33181;49.246;7.372;2023-02-10T04:30:02;49.47;;;25.00;;
47429;SDS011;33181;49.246;7.372;2023-02-10T04:32:28;54.40;;;26.73;;
47429;SDS011;33181;49.246;7.372;2023-02-10T04:34:54;47.30;;;24.83;;
47429;SDS011;33181;49.246;7.372;2023-02-10T04:37:20;54.20;;;26.23;;
47429;SDS011;33181;49.246;7.372;2023-02-10T04:39:46;49.87;;;24.40;;
47429;SDS011;33181;49.246;7.372;2023-02-10T04:42:11;48.37;;;23.97;;
47429;SDS011;33181;49.246;7.372;2023-02-10T04:44:37;53.70;;;25.53;;
47429;SDS011;33181;49.246;7.372;2023-02-10T04:47:03;54.30;;;27.27;;
47429;SDS011;33181;49.246;7.372;2023-02-10T04:49:29;57.47;;;27.40;;
47429;SDS011;33181;49.246;7.372;2023-02-10T04:51:54;105.73;;;39.63;;
47429;SDS011;33181;49.246;7.372;2023-02-10T04:54:20;77.63;;;32.93;;
47429;SDS011;33181;49.246;7.372;2023-02-10T04:56:47;73.70;;;32.00;;
47429;SDS011;33181;49.246;7.372;2023-02-10T04:59:13;77.20;;;32.73;;
47429;SDS011;33181;49.246;7.372;2023-02-10T05:01:38;62.77;;;30.60;;
47429;SDS011;33181;49.246;7.372;2023-02-10T05:04:04;60.63;;;30.00;;
47429;SDS011;33181;49.246;7.372;2023-02-10T05:06:30;58.17;;;29.10;;
47429;SDS011;33181;49.246;7.372;2023-02-10T05:08:56;65.57;;;30.87;;
47429;SDS011;33181;49.246;7.372;2023-02-10T05:11:22;65.97;;;28.50;;
47429;SDS011;33181;49.246;7.372;2023-02-10T05:13:48;66.23;;;31.23;;
47429;SDS011;33181;49.246;7.372;2023-02-10T05:16:15;56.33;;;26.90;;
47429;SDS011;33181;49.246;7.372;2023-02-10T05:18:41;54.73;;;27.37;;
47429;SDS011;33181;49.246;7.372;2023-02-10T05:21:09;58.13;;;26.67;;
47429;SDS011;33181;49.246;7.372;2023-02-10T05:23:37;53.00;;;25.60;;
47429;SDS011;33181;49.246;7.372;2023-02-10T05:26:04;51.73;;;26.10;;
47429;SDS011;33181;49.246;7.372;2023-02-10T05:28:30;49.67;;;24.93;;
47429;SDS011;33181;49.246;7.372;2023-02-10T05:30:56;56.30;;;27.17;;
47429;SDS011;33181;49.246;7.372;2023-02-10T05:33:21;56.10;;;28.07;;
47429;SDS011;33181;49.246;7.372;2023-02-10T05:35:47;56.53;;;26.50;;
47429;SDS011;33181;49.246;7.372;2023-02-10T05:38:13;50.10;;;26.40;;
47429;SDS011;33181;49.246;7.372;2023-02-10T05:40:39;55.23;;;26.83;;
47429;SDS011;33181;49.246;7.372;2023-02-10T05:43:05;51.20;;;25.80;;
47429;SDS011;33181;49.246;7.372;2023-02-10T05:45:32;48.77;;;26.07;;
47429;SDS011;33181;49.246;7.372;2023-02-10T05:47:58;57.23;;;27.83;;
47429;SDS011;33181;49.246;7.372;2023-02-10T05:50:25;51.87;;;24.50;;
47429;SDS011;33181;49.246;7.372;2023-02-10T05:52:50;58.60;;;26.33;;
47429;SDS011;33181;49.246;7.372;2023-02-10T05:55:16;53.07;;;25.30;;
47429;SDS011;33181;49.246;7.372;2023-02-10T05:57:42;49.63;;;25.70;;
47429;SDS011;33181;49.246;7.372;2023-02-10T06:00:08;59.40;;;27.17;;
47429;SDS011;33181;49.246;7.372;2023-02-10T06:02:34;50.43;;;26.03;;
47429;SDS011;33181;49.246;7.372;2023-02-10T06:05:00;54.83;;;25.90;;
47429;SDS011;33181;49.246;7.372;2023-02-10T06:07:26;54.83;;;26.50;;
47429;SDS011;33181;49.246;7.372;2023-02-10T06:09:52;59.37;;;28.17;;
47429;SDS011;33181;49.246;7.372;2023-02-10T06:12:18;47.27;;;25.10;;
47429;SDS011;33181;49.246;7.372;2023-02-10T06:14:44;54.17;;;26.43;;
47429;SDS011;33181;49.246;7.372;2023-02-10T06:17:10;55.00;;;27.87;;
47429;SDS011;33181;49.246;7.372;2023-02-10T06:19:36;55.90;;;27.53;;
47429;SDS011;33181;49.246;7.372;2023-02-10T06:22:04;55.83;;;27.63;;
47429;SDS011;33181;49.246;7.372;2023-02-10T06:24:31;56.97;;;27.80;;
47429;SDS011;33181;49.246;7.372;2023-02-10T06:26:57;53.63;;;25.37;;
47429;SDS011;33181;49.246;7.372;2023-02-10T06:29:23;54.03;;;28.27;;
47429;SDS011;33181;49.246;7.372;2023-02-10T06:31:49;97.03;;;39.60;;
47429;SDS011;33181;49.246;7.372;2023-02-10T06:34:15;81.50;;;34.20;;
47429;SDS011;33181;49.246;7.372;2023-02-10T06:36:41;78.20;;;34.97;;
47429;SDS011;33181;49.246;7.372;2023-02-10T06:39:07;79.83;;;35.50;;
47429;SDS011;33181;49.246;7.372;2023-02-10T06:41:33;75.47;;;32.40;;
47429;SDS011;33181;49.246;7.372;2023-02-10T06:43:59;75.40;;;32.40;;
47429;SDS011;33181;49.246;7.372;2023-02-10T06:46:25;89.07;;;38.40;;
47429;SDS011;33181;49.246;7.372;2023-02-10T06:48:51;78.60;;;35.40;;
47429;SDS011;33181;49.246;7.372;2023-02-10T06:51:19;80.23;;;36.80;;
47429;SDS011;33181;49.246;7.372;2023-02-10T06:53:45;75.53;;;34.30;;
47429;SDS011;33181;49.246;7.372;2023-02-10T06:56:11;69.97;;;31.57;;
47429;SDS011;33181;49.246;7.372;2023-02-10T06:58:37;62.03;;;29.80;;
47429;SDS011;33181;49.246;7.372;2023-02-10T07:01:11;56.67;;;28.50;;
47429;SDS011;33181;49.246;7.372;2023-02-10T07:03:41;55.00;;;27.47;;
47429;SDS011;33181;49.246;7.372;2023-02-10T07:06:07;59.20;;;28.80;;
47429;SDS011;33181;49.246;7.372;2023-02-10T07:08:33;51.60;;;26.57;;
47429;SDS011;33181;49.246;7.372;2023-02-10T07:10:59;66.40;;;29.03;;
47429;SDS011;33181;49.246;7.372;2023-02-10T07:13:25;52.90;;;28.60;;
47429;SDS011;33181;49.246;7.372;2023-02-10T07:15:51;66.53;;;28.13;;
47429;SDS011;33181;49.246;7.372;2023-02-10T07:18:17;57.17;;;27.03;;
47429;SDS011;33181;49.246;7.372;2023-02-10T07:20:46;53.00;;;25.37;;
47429;SDS011;33181;49.246;7.372;2023-02-10T07:23:33;53.50;;;27.90;;
47429;SDS011;33181;49.246;7.372;2023-02-10T07:26:01;66.50;;;30.13;;
47429;SDS011;33181;49.246;7.372;2023-02-10T07:28:27;57.50;;;29.40;;
47429;SDS011;33181;49.246;7.372;2023-02-10T07:30:52;59.37;;;28.10;;
47429;SDS011;33181;49.246;7.372;2023-02-10T07:33:18;58.90;;;29.13;;
47429;SDS011;33181;49.246;7.372;2023-02-10T07:35:45;53.80;;;28.00;;
47429;SDS011;33181;49.246;7.372;2023-02-10T07:38:10;69.20;;;29.30;;
47429;SDS011;33181;49.246;7.372;2023-02-10T07:40:36;64.60;;;31.03;;
47429;SDS011;33181;49.246;7.372;2023-02-10T07:43:02;61.47;;;27.80;;
47429;SDS011;33181;49.246;7.372;2023-02-10T07:45:28;58.03;;;28.53;;
47429;SDS011;33181;49.246;7.372;2023-02-10T07:47:56;52.60;;;28.30;;
47429;SDS011;33181;49.246;7.372;2023-02-10T07:50:25;61.67;;;28.70;;
47429;SDS011;33181;49.246;7.372;2023-02-10T07:52:51;48.90;;;26.97;;
47429;SDS011;33181;49.246;7.372;2023-02-10T07:55:17;50.10;;;27.20;;
47429;SDS011;33181;49.246;7.372;2023-02-10T07:57:43;63.10;;;29.73;;
47429;SDS011;33181;49.246;7.372;2023-02-10T08:00:10;59.93;;;29.50;;
47429;SDS011;33181;49.246;7.372;2023-02-10T08:02:39;59.60;;;30.00;;
47429;SDS011;33181;49.246;7.372;2023-02-10T08:05:05;67.57;;;30.20;;
47429;SDS011;33181;49.246;7.372;2023-02-10T08:07:31;58.27;;;29.57;;
47429;SDS011;33181;49.246;7.372;2023-02-10T08:09:57;60.90;;;29.90;;
47429;SDS011;33181;49.246;7.372;2023-02-10T08:12:23;61.77;;;31.67;;
47429;SDS011;33181;49.246;7.372;2023-02-10T08:14:48;62.77;;;30.60;;
47429;SDS011;33181;49.246;7.372;2023-02-10T08:17:14;62.97;;;31.20;;
47429;SDS011;33181;49.246;7.372;2023-02-10T08:19:40;65.60;;;32.17;;
47429;SDS011;33181;49.246;7.372;2023-02-10T08:22:06;70.27;;;32.13;;
47429;SDS011;33181;49.246;7.372;2023-02-10T08:24:31;67.37;;;31.70;;
47429;SDS011;33181;49.246;7.372;2023-02-10T08:26:57;61.40;;;31.77;;
47429;SDS011;33181;49.246;7.372;2023-02-10T08:29:23;60.87;;;31.37;;
47429;SDS011;33181;49.246;7.372;2023-02-10T08:31:50;66.93;;;30.70;;
47429;SDS011;33181;49.246;7.372;2023-02-10T08:34:17;56.60;;;28.07;;
47429;SDS011;33181;49.246;7.372;2023-02-10T08:36:45;60.77;;;30.27;;
47429;SDS011;33181;49.246;7.372;2023-02-10T08:39:13;60.30;;;30.17;;
47429;SDS011;33181;49.246;7.372;2023-02-10T08:41:39;57.80;;;29.53;;
47429;SDS011;33181;49.246;7.372;2023-02-10T08:44:06;62.67;;;29.80;;
47429;SDS011;33181;49.246;7.372;2023-02-10T08:46:32;66.47;;;31.40;;
47429;SDS011;33181;49.246;7.372;2023-02-10T08:48:59;62.93;;;29.77;;
47429;SDS011;33181;49.246;7.372;2023-02-10T08:51:26;61.20;;;29.87;;
47429;SDS011;33181;49.246;7.372;2023-02-10T08:53:53;57.23;;;29.60;;
47429;SDS011;33181;49.246;7.372;2023-02-10T08:56:21;62.30;;;29.27;;
47429;SDS011;33181;49.246;7.372;2023-02-10T08:58:47;61.70;;;31.70;;
47429;SDS011;33181;49.246;7.372;2023-02-10T09:01:16;69.07;;;33.13;;
47429;SDS011;33181;49.246;7.372;2023-02-10T09:03:48;63.70;;;30.57;;
47429;SDS011;33181;49.246;7.372;2023-02-10T09:06:15;56.23;;;31.80;;
47429;SDS011;33181;49.246;7.372;2023-02-10T09:08:44;61.10;;;31.50;;
47429;SDS011;33181;49.246;7.372;2023-02-10T09:11:14;62.10;;;30.17;;
47429;SDS011;33181;49.246;7.372;2023-02-10T09:13:41;63.27;;;31.80;;
47429;SDS011;33181;49.246;7.372;2023-02-10T09:16:07;67.73;;;34.50;;
47429;SDS011;33181;49.246;7.372;2023-02-10T09:18:32;68.57;;;36.37;;
47429;SDS011;33181;49.246;7.372;2023-02-10T09:20:59;73.73;;;35.73;;
47429;SDS011;33181;49.246;7.372;2023-02-10T09:23:26;70.47;;;34.07;;
47429;SDS011;33181;49.246;7.372;2023-02-10T09:25:57;73.70;;;35.00;;
47429;SDS011;33181;49.246;7.372;2023-02-10T09:28:25;64.83;;;33.03;;
47429;SDS011;33181;49.246;7.372;2023-02-10T09:30:52;65.27;;;33.90;;
47429;SDS011;33181;49.246;7.372;2023-02-10T09:33:18;63.30;;;33.37;;
47429;SDS011;33181;49.246;7.372;2023-02-10T09:35:44;66.60;;;35.20;;
47429;SDS011;33181;49.246;7.372;2023-02-10T09:38:11;62.47;;;33.20;;
47429;SDS011;33181;49.246;7.372;2023-02-10T09:52:44;63.80;;;32.00;;
47429;SDS011;33181;49.246;7.372;2023-02-10T09:55:36;59.00;;;30.57;;
47429;SDS011;33181;49.246;7.372;2023-02-10T09:58:24;71.07;;;34.50;;
47429;SDS011;33181;49.246;7.372;2023-02-10T10:01:25;77.43;;;40.40;;
47429;SDS011;33181;49.246;7.372;2023-02-10T10:04:03;75.10;;;38.83;;
47429;SDS011;33181;49.246;7.372;2023-02-10T10:06:50;66.30;;;34.70;;
47429;SDS011;33181;49.246;7.372;2023-02-10T10:09:32;69.13;;;32.90;;
47429;SDS011;33181;49.246;7.372;2023-02-10T10:12:03;58.77;;;31.83;;
47429;SDS011;33181;49.246;7.372;2023-02-10T10:14:33;63.30;;;33.60;;
47429;SDS011;33181;49.246;7.372;2023-02-10T10:20:17;63.83;;;32.60;;
47429;SDS011;33181;49.246;7.372;2023-02-10T10:29:43;57.63;;;30.43;;
47429;SDS011;33181;49.246;7.372;2023-02-10T10:35:15;67.47;;;34.10;;
47429;SDS011;33181;49.246;7.372;2023-02-10T10:37:43;59.87;;;31.93;;
47429;SDS011;33181;49.246;7.372;2023-02-10T10:40:14;59.77;;;31.53;;
47429;SDS011;33181;49.246;7.372;2023-02-10T10:42:49;61.00;;;31.13;;
47429;SDS011;33181;49.246;7.372;2023-02-10T10:48:04;61.43;;;31.87;;
47429;SDS011;33181;49.246;7.372;2023-02-10T10:50:49;61.87;;;32.50;;
47429;SDS011;33181;49.246;7.372;2023-02-10T10:53:20;60.90;;;32.73;;
47429;SDS011;33181;49.246;7.372;2023-02-10T10:59:13;56.67;;;31.40;;
47429;SDS011;33181;49.246;7.372;2023-02-10T11:02:14;55.33;;;31.73;;
47429;SDS011;33181;49.246;7.372;2023-02-10T11:04:44;61.33;;;32.60;;
47429;SDS011;33181;49.246;7.372;2023-02-10T11:07:12;59.40;;;31.97;;
47429;SDS011;33181;49.246;7.372;2023-02-10T11:09:49;57.30;;;31.80;;
47429;SDS011;33181;49.246;7.372;2023-02-10T11:15:49;55.23;;;32.20;;
47429;SDS011;33181;49.246;7.372;2023-02-10T11:18:21;57.03;;;31.70;;
47429;SDS011;33181;49.246;7.372;2023-02-10T11:20:55;67.70;;;31.10;;
47429;SDS011;33181;49.246;7.372;2023-02-10T11:23:25;54.50;;;30.07;;
47429;SDS011;33181;49.246;7.372;2023-02-10T11:25:57;59.67;;;31.20;;
47429;SDS011;33181;49.246;7.372;2023-02-10T11:28:31;58.37;;;32.00;;
47429;SDS011;33181;49.246;7.372;2023-02-10T11:31:02;58.23;;;31.40;;
47429;SDS011;33181;49.246;7.372;2023-02-10T11:36:55;56.27;;;31.27;;
47429;SDS011;33181;49.246;7.372;2023-02-10T11:39:27;50.20;;;29.33;;
47429;SDS011;33181;49.246;7.372;2023-02-10T11:45:03;56.13;;;29.73;;
47429;SDS011;33181;49.246;7.372;2023-02-10T11:47:42;52.10;;;30.30;;
47429;SDS011;33181;49.246;7.372;2023-02-10T11:50:22;52.93;;;29.90;;
47429;SDS011;33181;49.246;7.372;2023-02-10T11:52:50;57.10;;;30.80;;
47429;SDS011;33181;49.246;7.372;2023-02-10T11:55:16;59.47;;;31.00;;
47429;SDS011;33181;49.246;7.372;2023-02-10T12:01:01;70.53;;;36.67;;
47429;SDS011;33181;49.246;7.372;2023-02-10T12:03:46;61.00;;;29.93;;
47429;SDS011;33181;49.246;7.372;2023-02-10T12:06:37;55.00;;;32.10;;
47429;SDS011;33181;49.246;7.372;2023-02-10T12:12:06;58.70;;;31.33;;
47429;SDS011;33181;49.246;7.372;2023-02-10T12:15:07;52.87;;;29.87;;
47429;SDS011;33181;49.246;7.372;2023-02-10T12:20:58;50.83;;;28.50;;
47429;SDS011;33181;49.246;7.372;2023-02-10T12:26:41;49.40;;;28.43;;
47429;SDS011;33181;49.246;7.372;2023-02-10T12:29:36;45.60;;;26.67;;
47429;SDS011;33181;49.246;7.372;2023-02-10T12:36:24;50.57;;;27.47;;
47429;SDS011;33181;49.246;7.372;2023-02-10T12:39:56;52.90;;;30.17;;
47429;SDS011;33181;49.246;7.372;2023-02-10T12:42:49;51.10;;;28.93;;
47429;SDS011;33181;49.246;7.372;2023-02-10T12:54:32;51.87;;;30.27;;
47429;SDS011;33181;49.246;7.372;2023-02-10T12:57:05;50.93;;;29.20;;
47429;SDS011;33181;49.246;7.372;2023-02-10T12:59:53;53.43;;;29.60;;
47429;SDS011;33181;49.246;7.372;2023-02-10T13:05:18;51.23;;;29.23;;
47429;SDS011;33181;49.246;7.372;2023-02-10T13:07:53;54.30;;;28.67;;
47429;SDS011;33181;49.246;7.372;2023-02-10T13:13:18;47.93;;;29.10;;
47429;SDS011;33181;49.246;7.372;2023-02-10T13:16:04;50.43;;;28.50;;
47429;SDS011;33181;49.246;7.372;2023-02-10T13:18:50;55.40;;;30.07;;
47429;SDS011;33181;49.246;7.372;2023-02-10T13:35:31;48.17;;;27.73;;
47429;SDS011;33181;49.246;7.372;2023-02-10T13:37:59;48.37;;;28.80;;
47429;SDS011;33181;49.246;7.372;2023-02-10T13:40:55;47.17;;;27.53;;
47429;SDS011;33181;49.246;7.372;2023-02-10T13:43:40;50.13;;;28.10;;
47429;SDS011;33181;49.246;7.372;2023-02-10T13:46:14;48.47;;;28.90;;
47429;SDS011;33181;49.246;7.372;2023-02-10T13:48:54;50.63;;;29.63;;
47429;SDS011;33181;49.246;7.372;2023-02-10T13:51:32;50.50;;;28.43;;
47429;SDS011;33181;49.246;7.372;2023-02-10T13:54:00;48.37;;;28.83;;
47429;SDS011;33181;49.246;7.372;2023-02-10T13:56:27;50.90;;;29.57;;
47429;SDS011;33181;49.246;7.372;2023-02-10T14:02:21;51.80;;;29.07;;
47429;SDS011;33181;49.246;7.372;2023-02-10T14:04:50;48.67;;;26.70;;
47429;SDS011;33181;49.246;7.372;2023-02-10T14:10:29;45.73;;;25.40;;
47429;SDS011;33181;49.246;7.372;2023-02-10T14:15:57;53.70;;;28.80;;
47429;SDS011;33181;49.246;7.372;2023-02-10T14:19:01;47.53;;;27.03;;
47429;SDS011;33181;49.246;7.372;2023-02-10T14:21:44;48.80;;;27.67;;
47429;SDS011;33181;49.246;7.372;2023-02-10T14:24:12;52.00;;;28.93;;
47429;SDS011;33181;49.246;7.372;2023-02-10T14:27:08;45.70;;;26.40;;
47429;SDS011;33181;49.246;7.372;2023-02-10T14:29:39;50.60;;;28.00;;
47429;SDS011;33181;49.246;7.372;2023-02-10T14:32:19;49.63;;;28.90;;
47429;SDS011;33181;49.246;7.372;2023-02-10T14:34:53;48.97;;;28.90;;
47429;SDS011;33181;49.246;7.372;2023-02-10T14:37:25;52.17;;;29.93;;
47429;SDS011;33181;49.246;7.372;2023-02-10T14:39:52;46.70;;;27.80;;
47429;SDS011;33181;49.246;7.372;2023-02-10T14:42:28;53.20;;;28.70;;
47429;SDS011;33181;49.246;7.372;2023-02-10T14:44:58;51.40;;;29.37;;
47429;SDS011;33181;49.246;7.372;2023-02-10T14:47:37;49.70;;;28.90;;
47429;SDS011;33181;49.246;7.372;2023-02-10T14:50:20;51.23;;;29.50;;
47429;SDS011;33181;49.246;7.372;2023-02-10T14:52:55;49.40;;;30.27;;
47429;SDS011;33181;49.246;7.372;2023-02-10T15:00:31;51.77;;;29.33;;
47429;SDS011;33181;49.246;7.372;2023-02-10T15:02:58;48.73;;;27.67;;
47429;SDS011;33181;49.246;7.372;2023-02-10T15:05:28;56.10;;;30.13;;
47429;SDS011;33181;49.246;7.372;2023-02-10T15:08:08;49.20;;;29.40;;
47429;SDS011;33181;49.246;7.372;2023-02-10T15:10:46;53.33;;;30.20;;
47429;SDS011;33181;49.246;7.372;2023-02-10T15:13:15;52.73;;;31.20;;
47429;SDS011;33181;49.246;7.372;2023-02-10T15:15:49;56.63;;;30.30;;
47429;SDS011;33181;49.246;7.372;2023-02-10T15:18:20;55.33;;;31.00;;
47429;SDS011;33181;49.246;7.372;2023-02-10T15:21:02;71.43;;;36.50;;
47429;SDS011;33181;49.246;7.372;2023-02-10T15:23:48;62.77;;;32.20;;
47429;SDS011;33181;49.246;7.372;2023-02-10T15:26:23;65.60;;;33.97;;
47429;SDS011;33181;49.246;7.372;2023-02-10T15:31:38;63.43;;;34.57;;
47429;SDS011;33181;49.246;7.372;2023-02-10T15:34:27;64.53;;;34.30;;
47429;SDS011;33181;49.246;7.372;2023-02-10T15:36:56;64.37;;;35.37;;
47429;SDS011;33181;49.246;7.372;2023-02-10T15:39:31;62.90;;;34.90;;
47429;SDS011;33181;49.246;7.372;2023-02-10T15:44:40;86.47;;;41.60;;
47429;SDS011;33181;49.246;7.372;2023-02-10T15:49:52;84.13;;;41.70;;
47429;SDS011;33181;49.246;7.372;2023-02-10T15:55:09;72.37;;;39.07;;
47429;SDS011;33181;49.246;7.372;2023-02-10T15:57:47;70.03;;;37.63;;
47429;SDS011;33181;49.246;7.372;2023-02-10T16:02:43;75.53;;;39.20;;
47429;SDS011;33181;49.246;7.372;2023-02-10T16:05:09;83.50;;;42.43;;
47429;SDS011;33181;49.246;7.372;2023-02-10T16:07:35;75.83;;;40.23;;
47429;SDS011;33181;49.246;7.372;2023-02-10T16:10:01;63.47;;;35.57;;
47429;SDS011;33181;49.246;7.372;2023-02-10T16:12:27;61.37;;;33.67;;
47429;SDS011;33181;49.246;7.372;2023-02-10T16:14:53;62.77;;;35.07;;
47429;SDS011;33181;49.246;7.372;2023-02-10T16:17:24;62.10;;;34.93;;
47429;SDS011;33181;49.246;7.372;2023-02-10T16:19:54;65.13;;;34.70;;
47429;SDS011;33181;49.246;7.372;2023-02-10T16:22:20;57.40;;;32.83;;
47429;SDS011;33181;49.246;7.372;2023-02-10T16:24:46;72.00;;;41.60;;
47429;SDS011;33181;49.246;7.372;2023-02-10T16:27:15;69.97;;;38.17;;
47429;SDS011;33181;49.246;7.372;2023-02-10T16:29:41;66.23;;;35.60;;
47429;SDS011;33181;49.246;7.372;2023-02-10T16:32:08;59.40;;;34.80;;
47429;SDS011;33181;49.246;7.372;2023-02-10T16:34:35;62.67;;;34.67;;
47429;SDS011;33181;49.246;7.372;2023-02-10T16:37:01;72.80;;;37.10;;
47429;SDS011;33181;49.246;7.372;2023-02-10T16:39:27;79.63;;;41.30;;
47429;SDS011;33181;49.246;7.372;2023-02-10T16:41:53;85.60;;;41.87;;
47429;SDS011;33181;49.246;7.372;2023-02-10T16:44:19;70.23;;;39.10;;
47429;SDS011;33181;49.246;7.372;2023-02-10T16:46:45;84.50;;;46.03;;
47429;SDS011;33181;49.246;7.372;2023-02-10T16:49:12;88.13;;;48.20;;
47429;SDS011;33181;49.246;7.372;2023-02-10T16:51:40;107.33;;;54.10;;
47429;SDS011;33181;49.246;7.372;2023-02-10T16:54:07;91.47;;;47.23;;
47429;SDS011;33181;49.246;7.372;2023-02-10T16:56:34;82.37;;;39.80;;
47429;SDS011;33181;49.246;7.372;2023-02-10T16:59:02;92.47;;;47.83;;
47429;SDS011;33181;49.246;7.372;2023-02-10T17:01:30;125.63;;;58.40;;
47429;SDS011;33181;49.246;7.372;2023-02-10T17:03:56;98.77;;;48.87;;
47429;SDS011;33181;49.246;7.372;2023-02-10T17:06:23;96.50;;;47.40;;
47429;SDS011;33181;49.246;7.372;2023-02-10T17:08:50;96.53;;;49.17;;
47429;SDS011;33181;49.246;7.372;2023-02-10T17:11:16;88.37;;;45.23;;